RYR8AS LIBC-LIPE
Flight info
| Callsign | RYR8AS |
|---|---|
| Flight time | 1h 19m |
| Altitude | 34000 |
| Route | CDC1L CDC DCT SOMAS DCT ARBUM DCT EVINO DCT TEA DCT BAGNO DCT PELEG PELEG5M |
| Aircraft | B738/M-SDE2E3FGHIRWXY/LB1 |
Departure
| Time | 2026-05-07 20:44 |
|---|---|
| Airport | Crotone Sant'Anna Pythagoras Airport (LIBC) |
Arrival
| Time | 2026-05-07 22:03 |
|---|---|
| Airport | Bologna Guglielmo Marconi Airport (LIPE) |
| Time | Latitude | Longitude | Altitude | Speed | Heading |
|---|---|---|---|---|---|
| 2026-05-07 20:40 | 38.99647 | 17.07922 | 531 ft | 0 kts | 69° |
| 2026-05-07 20:40 | 38.99663 | 17.07973 | 530 ft | 13 kts | 63° |
| 2026-05-07 20:41 | 38.99771 | 17.08001 | 529 ft | 23 kts | 348° |
| 2026-05-07 20:41 | 38.99995 | 17.07944 | 531 ft | 42 kts | 349° |
| 2026-05-07 20:41 | 39.00321 | 17.07863 | 532 ft | 45 kts | 348° |
| 2026-05-07 20:41 | 39.00467 | 17.07819 | 533 ft | 11 kts | 342° |
| 2026-05-07 20:42 | 39.00547 | 17.07768 | 533 ft | 15 kts | 328° |
| 2026-05-07 20:42 | 39.00584 | 17.07788 | 533 ft | 2 kts | 121° |
| 2026-05-07 20:42 | 39.00553 | 17.07804 | 534 ft | 10 kts | 161° |
| 2026-05-07 20:42 | 39.00522 | 17.07816 | 534 ft | 0 kts | 167° |
| 2026-05-07 20:43 | 39.00511 | 17.07818 | 534 ft | 7 kts | 168° |
| 2026-05-07 20:43 | 39.00369 | 17.07855 | 532 ft | 55 kts | 168° |
| 2026-05-07 20:43 | 38.99697 | 17.08024 | 529 ft | 139 kts | 170° |
| 2026-05-07 20:43 | 38.98541 | 17.08295 | 824 ft | 185 kts | 171° |
| 2026-05-07 20:44 | 38.97282 | 17.08488 | 2002 ft | 181 kts | 173° |
| 2026-05-07 20:44 | 38.96061 | 17.08610 | 3042 ft | 170 kts | 177° |
| 2026-05-07 20:44 | 38.94856 | 17.08586 | 3662 ft | 183 kts | 179° |
| 2026-05-07 20:44 | 38.93503 | 17.08628 | 3881 ft | 206 kts | 177° |
| 2026-05-07 20:45 | 38.92002 | 17.08711 | 4104 ft | 225 kts | 176° |
| 2026-05-07 20:45 | 38.90426 | 17.08589 | 4541 ft | 234 kts | 197° |
| 2026-05-07 20:45 | 38.89116 | 17.07307 | 5046 ft | 245 kts | 230° |
| 2026-05-07 20:45 | 38.88436 | 17.05283 | 5635 ft | 253 kts | 255° |
| 2026-05-07 20:46 | 38.88464 | 17.02980 | 6095 ft | 266 kts | 277° |
| 2026-05-07 20:46 | 38.88921 | 17.00657 | 6566 ft | 271 kts | 282° |
| 2026-05-07 20:46 | 38.89474 | 16.98360 | 7122 ft | 268 kts | 283° |
| 2026-05-07 20:46 | 38.90037 | 16.96085 | 7692 ft | 266 kts | 283° |
| 2026-05-07 20:47 | 38.90593 | 16.93822 | 8223 ft | 266 kts | 283° |
| 2026-05-07 20:47 | 38.91143 | 16.91552 | 8765 ft | 266 kts | 283° |
| 2026-05-07 20:47 | 38.91697 | 16.89226 | 9054 ft | 281 kts | 283° |
| 2026-05-07 20:47 | 38.92271 | 16.86783 | 9599 ft | 289 kts | 283° |
| 2026-05-07 20:48 | 38.92850 | 16.84315 | 10379 ft | 289 kts | 283° |
| 2026-05-07 20:48 | 38.93444 | 16.81757 | 10610 ft | 311 kts | 283° |
| 2026-05-07 20:48 | 38.94078 | 16.79001 | 10786 ft | 332 kts | 283° |
| 2026-05-07 20:48 | 38.94744 | 16.76103 | 11182 ft | 344 kts | 283° |
| 2026-05-07 20:49 | 38.95427 | 16.73140 | 11802 ft | 347 kts | 283° |
| 2026-05-07 20:49 | 38.96114 | 16.70155 | 12510 ft | 349 kts | 283° |
| 2026-05-07 20:49 | 38.96803 | 16.67164 | 13279 ft | 348 kts | 282° |
| 2026-05-07 20:49 | 38.97491 | 16.64163 | 13890 ft | 352 kts | 282° |
| 2026-05-07 20:50 | 38.98184 | 16.61135 | 14539 ft | 355 kts | 282° |
| 2026-05-07 20:50 | 38.98867 | 16.58131 | 15241 ft | 355 kts | 282° |
| 2026-05-07 20:50 | 38.99559 | 16.55093 | 15938 ft | 357 kts | 283° |
| 2026-05-07 20:50 | 39.00262 | 16.52006 | 16469 ft | 364 kts | 283° |
| 2026-05-07 20:51 | 39.00977 | 16.48863 | 17046 ft | 368 kts | 283° |
| 2026-05-07 20:51 | 39.01694 | 16.45704 | 17790 ft | 368 kts | 283° |
| 2026-05-07 20:51 | 39.02414 | 16.42532 | 18397 ft | 372 kts | 283° |
| 2026-05-07 20:51 | 39.03137 | 16.39336 | 18951 ft | 374 kts | 283° |
| 2026-05-07 20:52 | 39.03864 | 16.36120 | 19569 ft | 374 kts | 283° |
| 2026-05-07 20:52 | 39.04591 | 16.32900 | 20146 ft | 376 kts | 283° |
| 2026-05-07 20:52 | 39.05320 | 16.29664 | 20696 ft | 378 kts | 283° |
| 2026-05-07 20:52 | 39.06053 | 16.26408 | 21226 ft | 380 kts | 283° |
| 2026-05-07 20:53 | 39.06788 | 16.23131 | 21768 ft | 382 kts | 284° |
| 2026-05-07 20:53 | 39.07527 | 16.19834 | 22307 ft | 384 kts | 284° |
| 2026-05-07 20:53 | 39.08268 | 16.16523 | 22841 ft | 386 kts | 284° |
| 2026-05-07 20:53 | 39.09014 | 16.13188 | 23367 ft | 388 kts | 284° |
| 2026-05-07 20:54 | 39.09761 | 16.09841 | 23838 ft | 390 kts | 284° |
| 2026-05-07 20:54 | 39.10511 | 16.06478 | 24258 ft | 392 kts | 283° |
| 2026-05-07 20:54 | 39.11263 | 16.03102 | 24675 ft | 393 kts | 283° |
| 2026-05-07 20:54 | 39.12191 | 15.99768 | 25068 ft | 399 kts | 292° |
| 2026-05-07 20:55 | 39.13615 | 15.96669 | 25462 ft | 406 kts | 301° |
| 2026-05-07 20:55 | 39.15404 | 15.93815 | 25848 ft | 415 kts | 309° |
| 2026-05-07 20:55 | 39.17576 | 15.91314 | 26213 ft | 421 kts | 314° |
| 2026-05-07 20:55 | 39.19841 | 15.88910 | 26581 ft | 423 kts | 315° |
| 2026-05-07 20:56 | 39.22123 | 15.86498 | 26941 ft | 425 kts | 314° |
| 2026-05-07 20:56 | 39.24401 | 15.84048 | 27285 ft | 427 kts | 313° |
| 2026-05-07 20:56 | 39.26671 | 15.81571 | 27626 ft | 429 kts | 313° |
| 2026-05-07 20:56 | 39.28947 | 15.79072 | 27966 ft | 431 kts | 313° |
| 2026-05-07 20:57 | 39.31236 | 15.76555 | 28284 ft | 433 kts | 313° |
| 2026-05-07 20:57 | 39.33532 | 15.74029 | 28613 ft | 435 kts | 312° |
| 2026-05-07 20:57 | 39.35836 | 15.71493 | 28956 ft | 436 kts | 312° |
| 2026-05-07 20:57 | 39.38139 | 15.68958 | 29440 ft | 434 kts | 311° |
| 2026-05-07 20:58 | 39.40429 | 15.66437 | 29968 ft | 431 kts | 311° |
| 2026-05-07 20:58 | 39.42710 | 15.63923 | 30400 ft | 430 kts | 311° |
| 2026-05-07 20:58 | 39.44988 | 15.61404 | 30622 ft | 433 kts | 311° |
| 2026-05-07 20:58 | 39.47281 | 15.58863 | 30903 ft | 434 kts | 311° |
| 2026-05-07 20:59 | 39.49565 | 15.56336 | 31367 ft | 430 kts | 310° |
| 2026-05-07 20:59 | 39.51828 | 15.53835 | 31890 ft | 425 kts | 310° |
| 2026-05-07 20:59 | 39.54066 | 15.51357 | 32366 ft | 421 kts | 309° |
| 2026-05-07 20:59 | 39.56257 | 15.48925 | 32725 ft | 420 kts | 309° |
| 2026-05-07 21:00 | 39.58468 | 15.46465 | 33067 ft | 419 kts | 308° |
| 2026-05-07 21:00 | 39.60679 | 15.44003 | 33408 ft | 418 kts | 308° |
| 2026-05-07 21:00 | 39.62875 | 15.41557 | 33843 ft | 415 kts | 308° |
| 2026-05-07 21:01 | 39.67278 | 15.36640 | 33947 ft | 420 kts | 308° |
| 2026-05-07 21:01 | 39.71727 | 15.31752 | 33927 ft | 419 kts | 311° |
| 2026-05-07 21:02 | 39.76634 | 15.27538 | 33944 ft | 426 kts | 316° |
| 2026-05-07 21:02 | 39.81677 | 15.23453 | 33945 ft | 428 kts | 316° |
| 2026-05-07 21:03 | 39.86730 | 15.19316 | 33935 ft | 430 kts | 316° |
| 2026-05-07 21:03 | 39.90932 | 15.15832 | 33949 ft | 431 kts | 316° |
| 2026-05-07 21:04 | 39.96002 | 15.11600 | 33931 ft | 433 kts | 317° |
| 2026-05-07 21:04 | 40.01074 | 15.07355 | 33924 ft | 435 kts | 317° |
| 2026-05-07 21:05 | 40.06201 | 15.03048 | 33932 ft | 442 kts | 317° |
| 2026-05-07 21:05 | 40.11373 | 14.98704 | 33919 ft | 442 kts | 317° |
| 2026-05-07 21:06 | 40.16553 | 14.94350 | 33938 ft | 443 kts | 318° |
| 2026-05-07 21:06 | 40.21721 | 14.89998 | 33916 ft | 438 kts | 319° |
| 2026-05-07 21:07 | 40.26786 | 14.85728 | 33917 ft | 431 kts | 319° |
| 2026-05-07 21:07 | 40.31832 | 14.81454 | 33919 ft | 433 kts | 319° |
| 2026-05-07 21:08 | 40.36861 | 14.77185 | 33915 ft | 434 kts | 319° |
| 2026-05-07 21:08 | 40.41932 | 14.72877 | 33920 ft | 435 kts | 319° |
| 2026-05-07 21:09 | 40.47016 | 14.68551 | 33921 ft | 436 kts | 319° |
| 2026-05-07 21:09 | 40.52108 | 14.64212 | 33907 ft | 436 kts | 319° |
| 2026-05-07 21:10 | 40.57201 | 14.59863 | 33914 ft | 437 kts | 319° |
| 2026-05-07 21:10 | 40.62293 | 14.55507 | 33915 ft | 436 kts | 319° |
| 2026-05-07 21:11 | 40.67377 | 14.51146 | 33918 ft | 436 kts | 319° |
| 2026-05-07 21:11 | 40.74999 | 14.44601 | 33931 ft | 436 kts | 319° |
| 2026-05-07 21:12 | 40.80074 | 14.40232 | 33923 ft | 436 kts | 319° |
| 2026-05-07 21:12 | 40.82617 | 14.38037 | 34082 ft | 438 kts | 319° |
| 2026-05-07 21:12 | 40.85163 | 14.35841 | 34410 ft | 435 kts | 319° |
| 2026-05-07 21:13 | 40.87687 | 14.33664 | 34815 ft | 432 kts | 319° |
| 2026-05-07 21:13 | 40.90193 | 14.31500 | 35157 ft | 429 kts | 319° |
| 2026-05-07 21:13 | 40.92687 | 14.29342 | 35435 ft | 428 kts | 319° |
| 2026-05-07 21:13 | 40.95175 | 14.27186 | 35666 ft | 428 kts | 319° |
| 2026-05-07 21:14 | 40.97662 | 14.25028 | 35887 ft | 427 kts | 318° |
| 2026-05-07 21:14 | 41.00155 | 14.22861 | 35898 ft | 430 kts | 318° |
| 2026-05-07 21:14 | 41.05157 | 14.18511 | 35935 ft | 429 kts | 319° |
| 2026-05-07 21:15 | 41.10099 | 14.14211 | 35937 ft | 426 kts | 319° |
| 2026-05-07 21:15 | 41.15046 | 14.09894 | 35945 ft | 425 kts | 319° |
| 2026-05-07 21:16 | 41.19981 | 14.05578 | 35946 ft | 425 kts | 319° |
| 2026-05-07 21:16 | 41.24910 | 14.01257 | 35947 ft | 425 kts | 319° |
| 2026-05-07 21:17 | 41.29848 | 13.96927 | 35950 ft | 426 kts | 319° |
| 2026-05-07 21:17 | 41.34920 | 13.92762 | 35987 ft | 430 kts | 322° |
| 2026-05-07 21:18 | 41.40095 | 13.88706 | 35965 ft | 433 kts | 322° |
| 2026-05-07 21:18 | 41.45282 | 13.84614 | 36002 ft | 434 kts | 322° |
| 2026-05-07 21:19 | 41.50466 | 13.80480 | 35981 ft | 434 kts | 322° |
| 2026-05-07 21:19 | 41.55651 | 13.76323 | 35971 ft | 434 kts | 322° |
| 2026-05-07 21:20 | 41.60812 | 13.72176 | 35986 ft | 433 kts | 322° |
| 2026-05-07 21:20 | 41.65957 | 13.68029 | 35995 ft | 431 kts | 322° |
| 2026-05-07 21:21 | 41.71042 | 13.63921 | 35991 ft | 429 kts | 322° |
| 2026-05-07 21:21 | 41.76145 | 13.59791 | 35973 ft | 428 kts | 322° |
| 2026-05-07 21:22 | 41.81215 | 13.55684 | 36038 ft | 426 kts | 322° |
| 2026-05-07 21:22 | 41.86305 | 13.51548 | 36021 ft | 429 kts | 322° |
| 2026-05-07 21:23 | 41.91430 | 13.47377 | 36010 ft | 433 kts | 322° |
| 2026-05-07 21:23 | 41.96571 | 13.43192 | 36025 ft | 432 kts | 322° |
| 2026-05-07 21:24 | 42.01722 | 13.38982 | 36025 ft | 434 kts | 322° |
| 2026-05-07 21:24 | 42.06856 | 13.34780 | 36004 ft | 435 kts | 322° |
| 2026-05-07 21:25 | 42.12033 | 13.30538 | 36022 ft | 436 kts | 322° |
| 2026-05-07 21:25 | 42.17220 | 13.26279 | 36009 ft | 436 kts | 322° |
| 2026-05-07 21:26 | 42.22397 | 13.22020 | 36021 ft | 436 kts | 322° |
| 2026-05-07 21:26 | 42.27571 | 13.17754 | 36013 ft | 436 kts | 322° |
| 2026-05-07 21:27 | 42.32742 | 13.13483 | 36015 ft | 435 kts | 322° |
| 2026-05-07 21:27 | 42.37892 | 13.09222 | 36017 ft | 433 kts | 322° |
| 2026-05-07 21:28 | 42.43020 | 13.04970 | 35987 ft | 432 kts | 321° |
| 2026-05-07 21:28 | 42.48120 | 13.00729 | 35987 ft | 428 kts | 321° |
| 2026-05-07 21:29 | 42.53199 | 12.96501 | 36025 ft | 430 kts | 321° |
| 2026-05-07 21:29 | 42.58343 | 12.92203 | 36025 ft | 437 kts | 321° |
| 2026-05-07 21:30 | 42.63517 | 12.87880 | 36011 ft | 437 kts | 321° |
| 2026-05-07 21:30 | 42.68700 | 12.83542 | 36011 ft | 438 kts | 321° |
| 2026-05-07 21:31 | 42.73888 | 12.79189 | 36005 ft | 439 kts | 321° |
| 2026-05-07 21:31 | 42.79075 | 12.74829 | 35998 ft | 438 kts | 321° |
| 2026-05-07 21:32 | 42.84252 | 12.70470 | 35999 ft | 436 kts | 321° |
| 2026-05-07 21:32 | 42.89405 | 12.66121 | 35998 ft | 435 kts | 321° |
| 2026-05-07 21:33 | 42.94575 | 12.61743 | 35470 ft | 441 kts | 321° |
| 2026-05-07 21:33 | 42.97183 | 12.59532 | 35024 ft | 440 kts | 321° |
| 2026-05-07 21:33 | 42.99774 | 12.57337 | 34608 ft | 437 kts | 321° |
| 2026-05-07 21:34 | 43.02356 | 12.55148 | 34187 ft | 437 kts | 321° |
| 2026-05-07 21:34 | 43.04943 | 12.52949 | 33726 ft | 438 kts | 321° |
| 2026-05-07 21:34 | 43.07526 | 12.50752 | 33255 ft | 438 kts | 321° |
| 2026-05-07 21:34 | 43.10112 | 12.48550 | 32809 ft | 437 kts | 322° |
| 2026-05-07 21:35 | 43.12657 | 12.46381 | 32382 ft | 437 kts | 322° |
| 2026-05-07 21:35 | 43.15240 | 12.44177 | 31977 ft | 438 kts | 321° |
| 2026-05-07 21:35 | 43.17825 | 12.41968 | 31548 ft | 438 kts | 321° |
| 2026-05-07 21:35 | 43.20408 | 12.39760 | 31142 ft | 438 kts | 321° |
| 2026-05-07 21:36 | 43.22989 | 12.37550 | 30699 ft | 438 kts | 321° |
| 2026-05-07 21:36 | 43.25569 | 12.35340 | 30303 ft | 437 kts | 321° |
| 2026-05-07 21:36 | 43.28154 | 12.33123 | 29828 ft | 439 kts | 321° |
| 2026-05-07 21:36 | 43.30749 | 12.30894 | 29341 ft | 440 kts | 322° |
| 2026-05-07 21:37 | 43.33342 | 12.28665 | 28899 ft | 442 kts | 322° |
| 2026-05-07 21:37 | 43.35968 | 12.26402 | 28429 ft | 449 kts | 322° |
| 2026-05-07 21:37 | 43.38622 | 12.24113 | 27973 ft | 450 kts | 322° |
| 2026-05-07 21:37 | 43.41272 | 12.21831 | 27518 ft | 448 kts | 322° |
| 2026-05-07 21:38 | 43.43909 | 12.19559 | 27037 ft | 447 kts | 322° |
| 2026-05-07 21:38 | 43.46546 | 12.17283 | 26588 ft | 448 kts | 323° |
| 2026-05-07 21:38 | 43.49203 | 12.14983 | 26128 ft | 455 kts | 323° |
| 2026-05-07 21:38 | 43.51892 | 12.12652 | 25655 ft | 457 kts | 323° |
| 2026-05-07 21:39 | 43.54569 | 12.10333 | 25185 ft | 452 kts | 323° |
| 2026-05-07 21:39 | 43.57224 | 12.08034 | 24724 ft | 449 kts | 323° |
| 2026-05-07 21:39 | 43.59862 | 12.05745 | 24290 ft | 446 kts | 323° |
| 2026-05-07 21:39 | 43.62482 | 12.03469 | 23813 ft | 445 kts | 323° |
| 2026-05-07 21:40 | 43.65101 | 12.01189 | 23277 ft | 444 kts | 324° |
| 2026-05-07 21:40 | 43.67706 | 11.98919 | 22786 ft | 441 kts | 324° |
| 2026-05-07 21:40 | 43.70294 | 11.96662 | 22291 ft | 438 kts | 324° |
| 2026-05-07 21:40 | 43.72863 | 11.94420 | 21848 ft | 435 kts | 324° |
| 2026-05-07 21:41 | 43.75413 | 11.92191 | 21385 ft | 433 kts | 324° |
| 2026-05-07 21:41 | 43.77954 | 11.89968 | 20933 ft | 431 kts | 324° |
| 2026-05-07 21:41 | 43.80479 | 11.87756 | 20506 ft | 429 kts | 324° |
| 2026-05-07 21:41 | 43.82996 | 11.85548 | 20052 ft | 427 kts | 325° |
| 2026-05-07 21:42 | 43.85496 | 11.83355 | 19609 ft | 425 kts | 325° |
| 2026-05-07 21:42 | 43.87992 | 11.81163 | 19170 ft | 423 kts | 325° |
| 2026-05-07 21:42 | 43.90470 | 11.78983 | 18734 ft | 421 kts | 325° |
| 2026-05-07 21:42 | 43.92934 | 11.76805 | 18297 ft | 419 kts | 325° |
| 2026-05-07 21:43 | 43.95387 | 11.74631 | 17793 ft | 417 kts | 325° |
| 2026-05-07 21:43 | 43.97821 | 11.72470 | 17325 ft | 414 kts | 326° |
| 2026-05-07 21:43 | 44.00238 | 11.70323 | 16881 ft | 410 kts | 326° |
| 2026-05-07 21:43 | 44.02632 | 11.68193 | 16455 ft | 407 kts | 326° |
| 2026-05-07 21:44 | 44.05011 | 11.66074 | 16033 ft | 405 kts | 326° |
| 2026-05-07 21:44 | 44.07372 | 11.63970 | 15617 ft | 402 kts | 326° |
| 2026-05-07 21:44 | 44.09725 | 11.61872 | 15193 ft | 401 kts | 326° |
| 2026-05-07 21:44 | 44.12069 | 11.59780 | 14785 ft | 399 kts | 326° |
| 2026-05-07 21:45 | 44.14402 | 11.57694 | 14372 ft | 398 kts | 326° |
| 2026-05-07 21:45 | 44.16731 | 11.55611 | 13956 ft | 397 kts | 326° |
| 2026-05-07 21:45 | 44.19024 | 11.53558 | 13486 ft | 383 kts | 326° |
| 2026-05-07 21:45 | 44.21211 | 11.51602 | 13056 ft | 365 kts | 326° |
| 2026-05-07 21:46 | 44.23300 | 11.49730 | 12672 ft | 348 kts | 326° |
| 2026-05-07 21:46 | 44.25293 | 11.47944 | 12317 ft | 334 kts | 326° |
| 2026-05-07 21:46 | 44.27206 | 11.46226 | 11960 ft | 321 kts | 326° |
| 2026-05-07 21:46 | 44.29054 | 11.44564 | 11628 ft | 310 kts | 326° |
| 2026-05-07 21:47 | 44.30817 | 11.42976 | 11301 ft | 304 kts | 326° |
| 2026-05-07 21:47 | 44.32587 | 11.41381 | 10990 ft | 302 kts | 326° |
| 2026-05-07 21:47 | 44.34346 | 11.39795 | 10669 ft | 300 kts | 326° |
| 2026-05-07 21:47 | 44.36096 | 11.38216 | 10352 ft | 299 kts | 326° |
| 2026-05-07 21:48 | 44.37820 | 11.36662 | 10217 ft | 291 kts | 326° |
| 2026-05-07 21:48 | 44.39491 | 11.35140 | 10076 ft | 282 kts | 323° |
| 2026-05-07 21:48 | 44.40774 | 11.33148 | 9887 ft | 275 kts | 299° |
| 2026-05-07 21:48 | 44.41632 | 11.30772 | 9608 ft | 273 kts | 296° |
| 2026-05-07 21:49 | 44.42459 | 11.28387 | 9303 ft | 272 kts | 296° |
| 2026-05-07 21:49 | 44.43287 | 11.26018 | 9018 ft | 271 kts | 296° |
| 2026-05-07 21:49 | 44.44117 | 11.23666 | 8767 ft | 269 kts | 296° |
| 2026-05-07 21:49 | 44.44961 | 11.21335 | 8454 ft | 267 kts | 297° |
| 2026-05-07 21:50 | 44.45810 | 11.19030 | 8182 ft | 266 kts | 297° |
| 2026-05-07 21:50 | 44.46636 | 11.16792 | 8062 ft | 248 kts | 297° |
| 2026-05-07 21:50 | 44.47396 | 11.14730 | 7933 ft | 229 kts | 297° |
| 2026-05-07 21:50 | 44.48097 | 11.12826 | 7804 ft | 211 kts | 297° |
| 2026-05-07 21:51 | 44.48747 | 11.11059 | 7680 ft | 197 kts | 297° |
| 2026-05-07 21:51 | 44.49361 | 11.09355 | 7364 ft | 197 kts | 297° |
| 2026-05-07 21:51 | 44.49963 | 11.07674 | 7140 ft | 191 kts | 297° |
| 2026-05-07 21:51 | 44.50550 | 11.06032 | 6942 ft | 186 kts | 297° |
| 2026-05-07 21:52 | 44.50943 | 11.04936 | 6826 ft | 187 kts | 297° |
| 2026-05-07 21:52 | 44.51522 | 11.03317 | 6654 ft | 190 kts | 297° |
| 2026-05-07 21:52 | 44.52118 | 11.01653 | 6449 ft | 193 kts | 297° |
| 2026-05-07 21:52 | 44.52722 | 10.99963 | 6254 ft | 195 kts | 297° |
| 2026-05-07 21:53 | 44.53338 | 10.98242 | 6020 ft | 193 kts | 297° |
| 2026-05-07 21:53 | 44.53926 | 10.96592 | 5940 ft | 185 kts | 297° |
| 2026-05-07 21:53 | 44.54505 | 10.94966 | 5790 ft | 189 kts | 297° |
| 2026-05-07 21:53 | 44.55097 | 10.93308 | 5621 ft | 192 kts | 297° |
| 2026-05-07 21:54 | 44.55700 | 10.91623 | 5415 ft | 194 kts | 300° |
| 2026-05-07 21:54 | 44.56637 | 10.90392 | 5198 ft | 182 kts | 343° |
| 2026-05-07 21:54 | 44.57817 | 10.90352 | 5202 ft | 169 kts | 13° |
| 2026-05-07 21:54 | 44.58900 | 10.90949 | 5036 ft | 161 kts | 29° |
| 2026-05-07 21:55 | 44.59894 | 10.91657 | 4923 ft | 163 kts | 29° |
| 2026-05-07 21:55 | 44.60890 | 10.92368 | 4851 ft | 159 kts | 29° |
| 2026-05-07 21:55 | 44.61870 | 10.93065 | 4778 ft | 155 kts | 29° |
| 2026-05-07 21:55 | 44.62829 | 10.93744 | 4678 ft | 155 kts | 29° |
| 2026-05-07 21:56 | 44.63792 | 10.94422 | 4632 ft | 155 kts | 29° |
| 2026-05-07 21:56 | 44.64692 | 10.95231 | 4545 ft | 155 kts | 51° |
| 2026-05-07 21:56 | 44.64905 | 10.96642 | 4423 ft | 152 kts | 108° |
| 2026-05-07 21:56 | 44.64508 | 10.98021 | 4263 ft | 153 kts | 111° |
| 2026-05-07 21:57 | 44.64101 | 10.99378 | 4090 ft | 149 kts | 113° |
| 2026-05-07 21:57 | 44.63673 | 11.00684 | 3928 ft | 145 kts | 115° |
| 2026-05-07 21:57 | 44.63243 | 11.01959 | 3774 ft | 144 kts | 115° |
| 2026-05-07 21:57 | 44.62802 | 11.03212 | 3610 ft | 145 kts | 116° |
| 2026-05-07 21:58 | 44.62341 | 11.04495 | 3478 ft | 149 kts | 116° |
| 2026-05-07 21:58 | 44.61872 | 11.05790 | 3317 ft | 149 kts | 116° |
| 2026-05-07 21:58 | 44.61406 | 11.07078 | 3156 ft | 148 kts | 116° |
| 2026-05-07 21:58 | 44.60942 | 11.08365 | 2983 ft | 151 kts | 116° |
| 2026-05-07 21:59 | 44.60455 | 11.09731 | 2695 ft | 161 kts | 114° |
| 2026-05-07 21:59 | 44.59971 | 11.11145 | 2463 ft | 160 kts | 115° |
| 2026-05-07 21:59 | 44.59479 | 11.12499 | 2299 ft | 148 kts | 117° |
| 2026-05-07 21:59 | 44.59014 | 11.13785 | 2015 ft | 150 kts | 115° |
| 2026-05-07 22:00 | 44.58557 | 11.15064 | 1812 ft | 146 kts | 115° |
| 2026-05-07 22:00 | 44.58099 | 11.16317 | 1672 ft | 141 kts | 121° |
| 2026-05-07 22:00 | 44.57581 | 11.17462 | 1516 ft | 138 kts | 116° |
| 2026-05-07 22:00 | 44.57178 | 11.18683 | 1277 ft | 139 kts | 113° |
| 2026-05-07 22:01 | 44.56775 | 11.19869 | 1097 ft | 132 kts | 117° |
| 2026-05-07 22:01 | 44.56386 | 11.21020 | 999 ft | 131 kts | 116° |
| 2026-05-07 22:01 | 44.55958 | 11.22161 | 846 ft | 133 kts | 117° |
| 2026-05-07 22:01 | 44.55551 | 11.23315 | 722 ft | 134 kts | 114° |
| 2026-05-07 22:02 | 44.55144 | 11.24481 | 644 ft | 131 kts | 118° |
| 2026-05-07 22:02 | 44.54735 | 11.25597 | 464 ft | 127 kts | 116° |
| 2026-05-07 22:02 | 44.54328 | 11.26702 | 295 ft | 126 kts | 117° |
| 2026-05-07 22:02 | 44.53951 | 11.27758 | 155 ft | 114 kts | 116° |
| 2026-05-07 22:03 | 44.53650 | 11.28584 | 132 ft | 69 kts | 117° |
| 2026-05-07 22:03 | 44.53443 | 11.29149 | 132 ft | 63 kts | 116° |
| 2026-05-07 22:03 | 44.53277 | 11.29559 | 134 ft | 39 kts | 133° |
| 2026-05-07 22:03 | 44.53073 | 11.29765 | 126 ft | 28 kts | 148° |
| 2026-05-07 22:04 | 44.52987 | 11.29740 | 129 ft | 6 kts | 275° |
| 2026-05-07 22:04 | 44.52958 | 11.29700 | 131 ft | 6 kts | 204° |
| 2026-05-07 22:04 | 44.52911 | 11.29671 | 132 ft | 0 kts | 206° |